sensor_id;sensor_type;location;lat;lon;timestamp;P1;durP1;ratioP1;P2;durP2;ratioP2
79798;SDS011;69283;48.024;11.090;2023-05-27T00:01:41;10.13;;;4.87;;
79798;SDS011;69283;48.024;11.090;2023-05-27T00:04:07;9.50;;;5.43;;
79798;SDS011;69283;48.024;11.090;2023-05-27T00:06:32;10.32;;;5.45;;
79798;SDS011;69283;48.024;11.090;2023-05-27T00:08:57;11.35;;;5.10;;
79798;SDS011;69283;48.024;11.090;2023-05-27T00:11:23;10.03;;;5.30;;
79798;SDS011;69283;48.024;11.090;2023-05-27T00:13:48;10.60;;;5.70;;
79798;SDS011;69283;48.024;11.090;2023-05-27T00:16:14;14.90;;;5.80;;
79798;SDS011;69283;48.024;11.090;2023-05-27T00:18:41;9.52;;;5.80;;
79798;SDS011;69283;48.024;11.090;2023-05-27T00:21:07;8.90;;;5.65;;
79798;SDS011;69283;48.024;11.090;2023-05-27T00:23:32;10.13;;;5.47;;
79798;SDS011;69283;48.024;11.090;2023-05-27T00:25:57;9.90;;;5.53;;
79798;SDS011;69283;48.024;11.090;2023-05-27T00:28:23;10.95;;;5.50;;
79798;SDS011;69283;48.024;11.090;2023-05-27T00:30:48;10.60;;;6.13;;
79798;SDS011;69283;48.024;11.090;2023-05-27T00:33:13;12.48;;;5.05;;
79798;SDS011;69283;48.024;11.090;2023-05-27T00:35:39;9.18;;;5.60;;
79798;SDS011;69283;48.024;11.090;2023-05-27T00:38:04;8.02;;;5.05;;
79798;SDS011;69283;48.024;11.090;2023-05-27T00:40:30;8.85;;;5.55;;
79798;SDS011;69283;48.024;11.090;2023-05-27T00:42:57;11.23;;;5.57;;
79798;SDS011;69283;48.024;11.090;2023-05-27T00:45:22;14.07;;;5.87;;
79798;SDS011;69283;48.024;11.090;2023-05-27T00:47:47;10.47;;;5.23;;
79798;SDS011;69283;48.024;11.090;2023-05-27T00:50:14;9.18;;;4.97;;
79798;SDS011;69283;48.024;11.090;2023-05-27T00:55:08;10.00;;;5.07;;
79798;SDS011;69283;48.024;11.090;2023-05-27T00:57:33;9.80;;;5.63;;
79798;SDS011;69283;48.024;11.090;2023-05-27T00:59:59;8.35;;;4.50;;
79798;SDS011;69283;48.024;11.090;2023-05-27T01:02:24;8.47;;;5.43;;
79798;SDS011;69283;48.024;11.090;2023-05-27T01:04:50;8.80;;;4.90;;
79798;SDS011;69283;48.024;11.090;2023-05-27T01:07:17;10.77;;;5.28;;
79798;SDS011;69283;48.024;11.090;2023-05-27T01:09:47;9.13;;;5.07;;
79798;SDS011;69283;48.024;11.090;2023-05-27T01:15:00;8.38;;;4.90;;
79798;SDS011;69283;48.024;11.090;2023-05-27T01:17:28;8.75;;;5.85;;
79798;SDS011;69283;48.024;11.090;2023-05-27T01:19:56;7.85;;;5.20;;
79798;SDS011;69283;48.024;11.090;2023-05-27T01:24:53;8.77;;;4.95;;
79798;SDS011;69283;48.024;11.090;2023-05-27T01:27:19;9.02;;;5.35;;
79798;SDS011;69283;48.024;11.090;2023-05-27T01:29:45;9.35;;;5.72;;
79798;SDS011;69283;48.024;11.090;2023-05-27T01:32:14;11.38;;;6.50;;
79798;SDS011;69283;48.024;11.090;2023-05-27T01:35:02;8.52;;;5.25;;
79798;SDS011;69283;48.024;11.090;2023-05-27T01:37:34;8.38;;;5.28;;
79798;SDS011;69283;48.024;11.090;2023-05-27T01:40:03;9.90;;;5.85;;
79798;SDS011;69283;48.024;11.090;2023-05-27T01:42:30;13.35;;;6.13;;
79798;SDS011;69283;48.024;11.090;2023-05-27T01:45:00;9.88;;;5.30;;
79798;SDS011;69283;48.024;11.090;2023-05-27T01:47:28;10.95;;;5.45;;
79798;SDS011;69283;48.024;11.090;2023-05-27T01:49:53;9.55;;;5.82;;
79798;SDS011;69283;48.024;11.090;2023-05-27T01:52:19;9.27;;;5.67;;
79798;SDS011;69283;48.024;11.090;2023-05-27T01:54:44;8.77;;;5.50;;
79798;SDS011;69283;48.024;11.090;2023-05-27T01:57:09;12.90;;;5.83;;
79798;SDS011;69283;48.024;11.090;2023-05-27T01:59:34;7.27;;;5.40;;
79798;SDS011;69283;48.024;11.090;2023-05-27T02:02:00;12.27;;;6.20;;
79798;SDS011;69283;48.024;11.090;2023-05-27T02:04:25;9.00;;;5.43;;
79798;SDS011;69283;48.024;11.090;2023-05-27T02:06:50;9.87;;;5.73;;
79798;SDS011;69283;48.024;11.090;2023-05-27T02:09:16;7.70;;;5.28;;
79798;SDS011;69283;48.024;11.090;2023-05-27T02:11:42;10.13;;;6.72;;
79798;SDS011;69283;48.024;11.090;2023-05-27T02:14:07;10.45;;;6.03;;
79798;SDS011;69283;48.024;11.090;2023-05-27T02:16:33;10.43;;;5.72;;
79798;SDS011;69283;48.024;11.090;2023-05-27T02:18:59;8.88;;;6.03;;
79798;SDS011;69283;48.024;11.090;2023-05-27T02:21:26;10.60;;;5.97;;
79798;SDS011;69283;48.024;11.090;2023-05-27T02:23:51;16.80;;;7.25;;
79798;SDS011;69283;48.024;11.090;2023-05-27T02:26:16;9.47;;;6.13;;
79798;SDS011;69283;48.024;11.090;2023-05-27T02:28:42;8.23;;;5.40;;
79798;SDS011;69283;48.024;11.090;2023-05-27T02:31:07;7.97;;;5.23;;
79798;SDS011;69283;48.024;11.090;2023-05-27T02:33:33;12.18;;;5.80;;
79798;SDS011;69283;48.024;11.090;2023-05-27T02:35:59;9.98;;;5.93;;
79798;SDS011;69283;48.024;11.090;2023-05-27T02:38:24;9.13;;;5.68;;
79798;SDS011;69283;48.024;11.090;2023-05-27T02:40:50;9.35;;;6.43;;
79798;SDS011;69283;48.024;11.090;2023-05-27T02:43:16;8.75;;;5.95;;
79798;SDS011;69283;48.024;11.090;2023-05-27T02:45:41;10.80;;;5.97;;
79798;SDS011;69283;48.024;11.090;2023-05-27T02:48:07;9.98;;;5.75;;
79798;SDS011;69283;48.024;11.090;2023-05-27T02:50:32;8.73;;;5.18;;
79798;SDS011;69283;48.024;11.090;2023-05-27T02:52:58;8.50;;;5.03;;
79798;SDS011;69283;48.024;11.090;2023-05-27T02:55:23;11.35;;;5.50;;
79798;SDS011;69283;48.024;11.090;2023-05-27T02:57:48;12.97;;;5.27;;
79798;SDS011;69283;48.024;11.090;2023-05-27T03:00:14;9.65;;;5.75;;
79798;SDS011;69283;48.024;11.090;2023-05-27T03:02:40;10.13;;;5.70;;
79798;SDS011;69283;48.024;11.090;2023-05-27T03:05:05;11.02;;;5.30;;
79798;SDS011;69283;48.024;11.090;2023-05-27T03:07:31;12.27;;;6.20;;
79798;SDS011;69283;48.024;11.090;2023-05-27T03:09:56;7.88;;;5.43;;
79798;SDS011;69283;48.024;11.090;2023-05-27T03:12:22;10.00;;;5.88;;
79798;SDS011;69283;48.024;11.090;2023-05-27T03:14:48;9.80;;;5.82;;
79798;SDS011;69283;48.024;11.090;2023-05-27T03:17:13;9.77;;;5.70;;
79798;SDS011;69283;48.024;11.090;2023-05-27T03:19:39;10.83;;;6.67;;
79798;SDS011;69283;48.024;11.090;2023-05-27T03:22:04;9.87;;;6.63;;
79798;SDS011;69283;48.024;11.090;2023-05-27T03:24:31;12.73;;;6.65;;
79798;SDS011;69283;48.024;11.090;2023-05-27T03:26:56;10.33;;;7.17;;
79798;SDS011;69283;48.024;11.090;2023-05-27T03:29:22;8.53;;;5.90;;
79798;SDS011;69283;48.024;11.090;2023-05-27T03:31:47;9.43;;;6.30;;
79798;SDS011;69283;48.024;11.090;2023-05-27T03:34:13;11.30;;;6.88;;
79798;SDS011;69283;48.024;11.090;2023-05-27T03:36:38;10.07;;;6.65;;
79798;SDS011;69283;48.024;11.090;2023-05-27T03:39:03;9.45;;;6.22;;
79798;SDS011;69283;48.024;11.090;2023-05-27T03:41:29;9.70;;;6.53;;
79798;SDS011;69283;48.024;11.090;2023-05-27T03:43:56;9.43;;;6.70;;
79798;SDS011;69283;48.024;11.090;2023-05-27T03:46:21;10.55;;;6.38;;
79798;SDS011;69283;48.024;11.090;2023-05-27T03:48:46;9.73;;;6.28;;
79798;SDS011;69283;48.024;11.090;2023-05-27T03:51:11;9.90;;;6.80;;
79798;SDS011;69283;48.024;11.090;2023-05-27T03:53:37;11.07;;;6.90;;
79798;SDS011;69283;48.024;11.090;2023-05-27T03:56:02;8.90;;;6.10;;
79798;SDS011;69283;48.024;11.090;2023-05-27T03:58:27;10.48;;;6.40;;
79798;SDS011;69283;48.024;11.090;2023-05-27T04:00:53;9.63;;;6.23;;
79798;SDS011;69283;48.024;11.090;2023-05-27T04:03:20;11.48;;;6.90;;
79798;SDS011;69283;48.024;11.090;2023-05-27T04:05:45;11.15;;;6.68;;
79798;SDS011;69283;48.024;11.090;2023-05-27T04:08:10;8.68;;;6.00;;
79798;SDS011;69283;48.024;11.090;2023-05-27T04:10:38;10.88;;;6.70;;
79798;SDS011;69283;48.024;11.090;2023-05-27T04:13:03;11.43;;;6.53;;
79798;SDS011;69283;48.024;11.090;2023-05-27T04:15:29;11.65;;;6.82;;
79798;SDS011;69283;48.024;11.090;2023-05-27T04:17:54;11.57;;;7.27;;
79798;SDS011;69283;48.024;11.090;2023-05-27T04:20:20;16.33;;;6.30;;
79798;SDS011;69283;48.024;11.090;2023-05-27T04:22:46;10.57;;;6.65;;
79798;SDS011;69283;48.024;11.090;2023-05-27T04:25:11;8.40;;;6.33;;
79798;SDS011;69283;48.024;11.090;2023-05-27T04:27:37;10.27;;;6.20;;
79798;SDS011;69283;48.024;11.090;2023-05-27T04:30:03;8.77;;;6.43;;
79798;SDS011;69283;48.024;11.090;2023-05-27T04:35:03;10.55;;;6.13;;
79798;SDS011;69283;48.024;11.090;2023-05-27T04:37:35;9.73;;;6.25;;
79798;SDS011;69283;48.024;11.090;2023-05-27T04:40:02;10.23;;;6.60;;
79798;SDS011;69283;48.024;11.090;2023-05-27T04:42:28;11.90;;;6.07;;
79798;SDS011;69283;48.024;11.090;2023-05-27T04:44:54;10.37;;;7.33;;
79798;SDS011;69283;48.024;11.090;2023-05-27T04:47:19;10.57;;;6.88;;
79798;SDS011;69283;48.024;11.090;2023-05-27T04:49:46;12.40;;;6.85;;
79798;SDS011;69283;48.024;11.090;2023-05-27T04:52:12;11.30;;;6.57;;
79798;SDS011;69283;48.024;11.090;2023-05-27T04:54:37;9.80;;;6.20;;
79798;SDS011;69283;48.024;11.090;2023-05-27T04:57:02;11.73;;;5.80;;
79798;SDS011;69283;48.024;11.090;2023-05-27T04:59:28;11.45;;;6.57;;
79798;SDS011;69283;48.024;11.090;2023-05-27T05:02:10;7.80;;;6.07;;
79798;SDS011;69283;48.024;11.090;2023-05-27T05:04:46;12.23;;;6.03;;
79798;SDS011;69283;48.024;11.090;2023-05-27T05:07:11;13.30;;;6.27;;
79798;SDS011;69283;48.024;11.090;2023-05-27T05:09:36;9.57;;;6.00;;
79798;SDS011;69283;48.024;11.090;2023-05-27T05:12:01;8.10;;;5.90;;
79798;SDS011;69283;48.024;11.090;2023-05-27T05:14:29;8.70;;;5.88;;
79798;SDS011;69283;48.024;11.090;2023-05-27T05:16:54;15.88;;;7.43;;
79798;SDS011;69283;48.024;11.090;2023-05-27T05:19:20;11.97;;;6.40;;
79798;SDS011;69283;48.024;11.090;2023-05-27T05:21:45;11.63;;;7.23;;
79798;SDS011;69283;48.024;11.090;2023-05-27T05:24:10;11.10;;;7.67;;
79798;SDS011;69283;48.024;11.090;2023-05-27T05:26:35;9.30;;;5.70;;
79798;SDS011;69283;48.024;11.090;2023-05-27T05:29:01;11.23;;;5.77;;
79798;SDS011;69283;48.024;11.090;2023-05-27T05:31:26;11.10;;;6.47;;
79798;SDS011;69283;48.024;11.090;2023-05-27T05:33:52;12.82;;;6.30;;
79798;SDS011;69283;48.024;11.090;2023-05-27T05:36:17;12.17;;;6.37;;
79798;SDS011;69283;48.024;11.090;2023-05-27T05:38:42;9.63;;;5.85;;
79798;SDS011;69283;48.024;11.090;2023-05-27T05:41:08;8.00;;;5.85;;
79798;SDS011;69283;48.024;11.090;2023-05-27T05:43:33;8.80;;;5.47;;
79798;SDS011;69283;48.024;11.090;2023-05-27T05:45:58;11.18;;;6.85;;
79798;SDS011;69283;48.024;11.090;2023-05-27T05:48:24;10.68;;;6.30;;
79798;SDS011;69283;48.024;11.090;2023-05-27T05:50:50;9.65;;;6.68;;
79798;SDS011;69283;48.024;11.090;2023-05-27T05:53:15;11.70;;;7.23;;
79798;SDS011;69283;48.024;11.090;2023-05-27T05:55:40;9.20;;;5.78;;
79798;SDS011;69283;48.024;11.090;2023-05-27T05:58:06;10.70;;;5.70;;
79798;SDS011;69283;48.024;11.090;2023-05-27T06:00:31;8.90;;;5.95;;
79798;SDS011;69283;48.024;11.090;2023-05-27T06:02:57;9.23;;;5.47;;
79798;SDS011;69283;48.024;11.090;2023-05-27T06:05:22;10.68;;;6.30;;
79798;SDS011;69283;48.024;11.090;2023-05-27T06:07:47;10.73;;;6.60;;
79798;SDS011;69283;48.024;11.090;2023-05-27T06:10:13;10.65;;;5.68;;
79798;SDS011;69283;48.024;11.090;2023-05-27T06:12:38;13.60;;;6.78;;
79798;SDS011;69283;48.024;11.090;2023-05-27T06:15:04;9.73;;;5.82;;
79798;SDS011;69283;48.024;11.090;2023-05-27T06:17:30;11.77;;;6.65;;
79798;SDS011;69283;48.024;11.090;2023-05-27T06:19:55;11.43;;;5.72;;
79798;SDS011;69283;48.024;11.090;2023-05-27T06:22:20;11.80;;;5.88;;
79798;SDS011;69283;48.024;11.090;2023-05-27T06:24:45;9.27;;;5.40;;
79798;SDS011;69283;48.024;11.090;2023-05-27T06:27:11;8.33;;;5.57;;
79798;SDS011;69283;48.024;11.090;2023-05-27T06:29:36;10.77;;;5.90;;
79798;SDS011;69283;48.024;11.090;2023-05-27T06:32:01;10.70;;;5.53;;
79798;SDS011;69283;48.024;11.090;2023-05-27T06:34:27;9.60;;;5.00;;
79798;SDS011;69283;48.024;11.090;2023-05-27T06:36:52;8.85;;;5.30;;
79798;SDS011;69283;48.024;11.090;2023-05-27T06:39:17;9.57;;;5.60;;
79798;SDS011;69283;48.024;11.090;2023-05-27T06:41:43;8.75;;;5.57;;
79798;SDS011;69283;48.024;11.090;2023-05-27T06:44:08;14.32;;;6.03;;
79798;SDS011;69283;48.024;11.090;2023-05-27T06:46:33;11.18;;;5.68;;
79798;SDS011;69283;48.024;11.090;2023-05-27T06:48:59;10.93;;;5.83;;
79798;SDS011;69283;48.024;11.090;2023-05-27T06:51:24;12.33;;;6.23;;
79798;SDS011;69283;48.024;11.090;2023-05-27T06:53:50;9.30;;;4.43;;
79798;SDS011;69283;48.024;11.090;2023-05-27T06:56:15;12.48;;;4.70;;
79798;SDS011;69283;48.024;11.090;2023-05-27T06:58:40;9.45;;;4.97;;
79798;SDS011;69283;48.024;11.090;2023-05-27T07:01:06;9.05;;;4.82;;
79798;SDS011;69283;48.024;11.090;2023-05-27T07:03:32;8.30;;;4.70;;
79798;SDS011;69283;48.024;11.090;2023-05-27T07:05:57;10.88;;;4.68;;
79798;SDS011;69283;48.024;11.090;2023-05-27T07:08:23;9.33;;;4.80;;
79798;SDS011;69283;48.024;11.090;2023-05-27T07:10:48;8.35;;;4.40;;
79798;SDS011;69283;48.024;11.090;2023-05-27T07:13:13;6.93;;;4.25;;
79798;SDS011;69283;48.024;11.090;2023-05-27T07:15:40;10.38;;;4.88;;
79798;SDS011;69283;48.024;11.090;2023-05-27T07:18:05;8.35;;;3.75;;
79798;SDS011;69283;48.024;11.090;2023-05-27T07:20:31;7.63;;;4.80;;
79798;SDS011;69283;48.024;11.090;2023-05-27T07:22:58;5.15;;;3.65;;
79798;SDS011;69283;48.024;11.090;2023-05-27T07:25:23;10.93;;;4.67;;
79798;SDS011;69283;48.024;11.090;2023-05-27T07:27:48;8.03;;;4.30;;
79798;SDS011;69283;48.024;11.090;2023-05-27T07:30:13;8.63;;;4.27;;
79798;SDS011;69283;48.024;11.090;2023-05-27T07:32:39;5.88;;;3.72;;
79798;SDS011;69283;48.024;11.090;2023-05-27T07:35:04;12.50;;;4.68;;
79798;SDS011;69283;48.024;11.090;2023-05-27T07:37:30;9.85;;;4.85;;
79798;SDS011;69283;48.024;11.090;2023-05-27T07:39:55;12.23;;;4.43;;
79798;SDS011;69283;48.024;11.090;2023-05-27T07:42:20;8.68;;;3.88;;
79798;SDS011;69283;48.024;11.090;2023-05-27T07:44:46;6.63;;;3.60;;
79798;SDS011;69283;48.024;11.090;2023-05-27T07:47:11;9.40;;;4.07;;
79798;SDS011;69283;48.024;11.090;2023-05-27T07:49:36;11.07;;;4.00;;
79798;SDS011;69283;48.024;11.090;2023-05-27T07:52:02;8.13;;;4.38;;
79798;SDS011;69283;48.024;11.090;2023-05-27T07:54:27;9.98;;;4.20;;
79798;SDS011;69283;48.024;11.090;2023-05-27T07:56:52;10.65;;;4.25;;
79798;SDS011;69283;48.024;11.090;2023-05-27T07:59:18;7.15;;;4.50;;
79798;SDS011;69283;48.024;11.090;2023-05-27T08:01:43;7.43;;;3.80;;
79798;SDS011;69283;48.024;11.090;2023-05-27T08:04:09;9.43;;;4.90;;
79798;SDS011;69283;48.024;11.090;2023-05-27T08:06:34;10.88;;;3.78;;
79798;SDS011;69283;48.024;11.090;2023-05-27T08:09:00;10.18;;;4.28;;
79798;SDS011;69283;48.024;11.090;2023-05-27T08:11:26;7.70;;;4.03;;
79798;SDS011;69283;48.024;11.090;2023-05-27T08:13:52;8.48;;;4.05;;
79798;SDS011;69283;48.024;11.090;2023-05-27T08:16:17;9.73;;;4.20;;
79798;SDS011;69283;48.024;11.090;2023-05-27T08:18:42;8.33;;;4.37;;
79798;SDS011;69283;48.024;11.090;2023-05-27T08:21:07;8.85;;;3.78;;
79798;SDS011;69283;48.024;11.090;2023-05-27T08:23:33;7.05;;;4.35;;
79798;SDS011;69283;48.024;11.090;2023-05-27T08:25:58;6.70;;;4.03;;
79798;SDS011;69283;48.024;11.090;2023-05-27T08:28:23;8.68;;;4.82;;
79798;SDS011;69283;48.024;11.090;2023-05-27T08:30:49;6.07;;;3.53;;
79798;SDS011;69283;48.024;11.090;2023-05-27T08:33:14;7.07;;;4.20;;
79798;SDS011;69283;48.024;11.090;2023-05-27T08:35:40;6.75;;;4.15;;
79798;SDS011;69283;48.024;11.090;2023-05-27T08:38:06;8.55;;;3.72;;
79798;SDS011;69283;48.024;11.090;2023-05-27T08:40:31;9.27;;;4.00;;
79798;SDS011;69283;48.024;11.090;2023-05-27T08:42:56;10.18;;;4.65;;
79798;SDS011;69283;48.024;11.090;2023-05-27T08:45:22;10.10;;;4.18;;
79798;SDS011;69283;48.024;11.090;2023-05-27T08:47:47;8.73;;;4.32;;
79798;SDS011;69283;48.024;11.090;2023-05-27T08:50:17;9.55;;;4.70;;
79798;SDS011;69283;48.024;11.090;2023-05-27T08:52:47;10.20;;;4.30;;
79798;SDS011;69283;48.024;11.090;2023-05-27T08:55:15;9.80;;;4.88;;
79798;SDS011;69283;48.024;11.090;2023-05-27T08:57:46;12.35;;;4.18;;
79798;SDS011;69283;48.024;11.090;2023-05-27T09:00:16;7.30;;;4.13;;
79798;SDS011;69283;48.024;11.090;2023-05-27T09:02:42;9.70;;;3.70;;
79798;SDS011;69283;48.024;11.090;2023-05-27T09:05:08;7.07;;;4.20;;
79798;SDS011;69283;48.024;11.090;2023-05-27T09:07:34;7.95;;;3.88;;
79798;SDS011;69283;48.024;11.090;2023-05-27T09:10:00;8.50;;;4.75;;
79798;SDS011;69283;48.024;11.090;2023-05-27T09:12:26;11.27;;;4.35;;
79798;SDS011;69283;48.024;11.090;2023-05-27T09:14:52;10.52;;;4.25;;
79798;SDS011;69283;48.024;11.090;2023-05-27T09:17:22;11.48;;;5.13;;
79798;SDS011;69283;48.024;11.090;2023-05-27T09:22:38;10.43;;;4.80;;
79798;SDS011;69283;48.024;11.090;2023-05-27T09:25:03;7.60;;;4.18;;
79798;SDS011;69283;48.024;11.090;2023-05-27T09:27:30;8.95;;;3.90;;
79798;SDS011;69283;48.024;11.090;2023-05-27T09:29:56;7.38;;;3.70;;
79798;SDS011;69283;48.024;11.090;2023-05-27T09:32:26;7.80;;;3.90;;
79798;SDS011;69283;48.024;11.090;2023-05-27T09:34:52;9.85;;;4.63;;
79798;SDS011;69283;48.024;11.090;2023-05-27T09:37:19;11.73;;;4.57;;
79798;SDS011;69283;48.024;11.090;2023-05-27T09:39:45;13.27;;;4.45;;
79798;SDS011;69283;48.024;11.090;2023-05-27T09:42:11;6.95;;;4.07;;
79798;SDS011;69283;48.024;11.090;2023-05-27T09:44:37;7.88;;;3.70;;
79798;SDS011;69283;48.024;11.090;2023-05-27T09:47:04;8.60;;;3.90;;
79798;SDS011;69283;48.024;11.090;2023-05-27T09:49:31;12.50;;;5.88;;
79798;SDS011;69283;48.024;11.090;2023-05-27T09:52:00;8.75;;;4.05;;
79798;SDS011;69283;48.024;11.090;2023-05-27T09:54:26;8.48;;;3.83;;
79798;SDS011;69283;48.024;11.090;2023-05-27T09:56:51;9.27;;;4.35;;
79798;SDS011;69283;48.024;11.090;2023-05-27T09:59:17;8.32;;;3.85;;
79798;SDS011;69283;48.024;11.090;2023-05-27T10:01:43;8.52;;;4.35;;
79798;SDS011;69283;48.024;11.090;2023-05-27T10:04:10;8.25;;;4.03;;
79798;SDS011;69283;48.024;11.090;2023-05-27T10:06:36;8.98;;;4.50;;
79798;SDS011;69283;48.024;11.090;2023-05-27T10:09:02;10.20;;;4.72;;
79798;SDS011;69283;48.024;11.090;2023-05-27T10:11:31;8.93;;;4.57;;
79798;SDS011;69283;48.024;11.090;2023-05-27T10:14:00;6.05;;;3.30;;
79798;SDS011;69283;48.024;11.090;2023-05-27T10:16:26;11.93;;;4.38;;
79798;SDS011;69283;48.024;11.090;2023-05-27T10:18:55;14.57;;;4.15;;
79798;SDS011;69283;48.024;11.090;2023-05-27T10:21:22;30.38;;;17.58;;
79798;SDS011;69283;48.024;11.090;2023-05-27T10:26:31;19.88;;;8.55;;
79798;SDS011;69283;48.024;11.090;2023-05-27T10:29:04;11.55;;;4.70;;
79798;SDS011;69283;48.024;11.090;2023-05-27T10:33:57;8.80;;;4.97;;
79798;SDS011;69283;48.024;11.090;2023-05-27T10:36:23;7.53;;;4.32;;
79798;SDS011;69283;48.024;11.090;2023-05-27T10:38:54;8.95;;;4.00;;
79798;SDS011;69283;48.024;11.090;2023-05-27T10:41:21;10.18;;;4.80;;
79798;SDS011;69283;48.024;11.090;2023-05-27T10:43:54;10.00;;;4.30;;
79798;SDS011;69283;48.024;11.090;2023-05-27T10:46:23;8.55;;;4.18;;
79798;SDS011;69283;48.024;11.090;2023-05-27T10:48:48;12.95;;;4.03;;
79798;SDS011;69283;48.024;11.090;2023-05-27T10:51:14;8.52;;;4.38;;
79798;SDS011;69283;48.024;11.090;2023-05-27T10:53:39;6.80;;;3.90;;
79798;SDS011;69283;48.024;11.090;2023-05-27T10:56:05;8.38;;;3.72;;
79798;SDS011;69283;48.024;11.090;2023-05-27T10:58:34;12.98;;;4.63;;
79798;SDS011;69283;48.024;11.090;2023-05-27T11:01:06;7.82;;;4.63;;
79798;SDS011;69283;48.024;11.090;2023-05-27T11:03:45;8.80;;;4.65;;
79798;SDS011;69283;48.024;11.090;2023-05-27T11:06:11;7.35;;;4.20;;
79798;SDS011;69283;48.024;11.090;2023-05-27T11:08:36;8.40;;;3.75;;
79798;SDS011;69283;48.024;11.090;2023-05-27T11:11:05;9.63;;;3.67;;
79798;SDS011;69283;48.024;11.090;2023-05-27T11:13:35;10.02;;;4.30;;
79798;SDS011;69283;48.024;11.090;2023-05-27T11:16:07;8.88;;;3.85;;
79798;SDS011;69283;48.024;11.090;2023-05-27T11:18:36;8.18;;;4.07;;
79798;SDS011;69283;48.024;11.090;2023-05-27T11:23:45;8.63;;;3.88;;
79798;SDS011;69283;48.024;11.090;2023-05-27T11:26:21;8.93;;;4.63;;
79798;SDS011;69283;48.024;11.090;2023-05-27T11:28:48;7.35;;;3.92;;
79798;SDS011;69283;48.024;11.090;2023-05-27T11:31:22;7.95;;;3.90;;
79798;SDS011;69283;48.024;11.090;2023-05-27T11:33:52;8.82;;;3.50;;
79798;SDS011;69283;48.024;11.090;2023-05-27T11:36:18;8.70;;;4.25;;
79798;SDS011;69283;48.024;11.090;2023-05-27T11:41:18;7.35;;;4.07;;
79798;SDS011;69283;48.024;11.090;2023-05-27T11:43:51;8.80;;;3.88;;
79798;SDS011;69283;48.024;11.090;2023-05-27T11:46:34;9.25;;;4.85;;
79798;SDS011;69283;48.024;11.090;2023-05-27T11:49:00;9.07;;;4.30;;
79798;SDS011;69283;48.024;11.090;2023-05-27T11:51:28;8.35;;;4.55;;
79798;SDS011;69283;48.024;11.090;2023-05-27T11:53:54;8.25;;;4.72;;
79798;SDS011;69283;48.024;11.090;2023-05-27T11:56:21;8.57;;;3.63;;
79798;SDS011;69283;48.024;11.090;2023-05-27T11:58:46;8.93;;;3.72;;
79798;SDS011;69283;48.024;11.090;2023-05-27T12:01:12;8.57;;;4.10;;
79798;SDS011;69283;48.024;11.090;2023-05-27T12:03:37;10.60;;;4.10;;
79798;SDS011;69283;48.024;11.090;2023-05-27T12:06:02;6.63;;;3.40;;
79798;SDS011;69283;48.024;11.090;2023-05-27T12:08:28;6.45;;;3.70;;
79798;SDS011;69283;48.024;11.090;2023-05-27T12:10:53;7.53;;;4.00;;
79798;SDS011;69283;48.024;11.090;2023-05-27T12:13:19;8.80;;;4.07;;
79798;SDS011;69283;48.024;11.090;2023-05-27T12:15:46;8.50;;;4.38;;
79798;SDS011;69283;48.024;11.090;2023-05-27T12:18:12;7.43;;;3.72;;
79798;SDS011;69283;48.024;11.090;2023-05-27T12:20:37;6.93;;;4.38;;
79798;SDS011;69283;48.024;11.090;2023-05-27T12:23:02;9.27;;;4.43;;
79798;SDS011;69283;48.024;11.090;2023-05-27T12:25:28;7.90;;;3.72;;
79798;SDS011;69283;48.024;11.090;2023-05-27T12:27:53;7.10;;;4.18;;
79798;SDS011;69283;48.024;11.090;2023-05-27T12:30:18;9.10;;;4.47;;
79798;SDS011;69283;48.024;11.090;2023-05-27T12:32:44;7.97;;;3.85;;
79798;SDS011;69283;48.024;11.090;2023-05-27T12:35:09;10.20;;;4.00;;
79798;SDS011;69283;48.024;11.090;2023-05-27T12:37:35;8.90;;;3.85;;
79798;SDS011;69283;48.024;11.090;2023-05-27T12:40:00;9.07;;;3.75;;
79798;SDS011;69283;48.024;11.090;2023-05-27T12:42:25;9.77;;;4.03;;
79798;SDS011;69283;48.024;11.090;2023-05-27T12:44:52;12.45;;;4.32;;
79798;SDS011;69283;48.024;11.090;2023-05-27T12:47:17;8.73;;;4.47;;
79798;SDS011;69283;48.024;11.090;2023-05-27T12:49:42;8.47;;;4.47;;
79798;SDS011;69283;48.024;11.090;2023-05-27T12:52:07;7.45;;;4.18;;
79798;SDS011;69283;48.024;11.090;2023-05-27T12:54:33;8.13;;;4.07;;
79798;SDS011;69283;48.024;11.090;2023-05-27T12:56:58;10.38;;;4.22;;
79798;SDS011;69283;48.024;11.090;2023-05-27T12:59:23;7.83;;;4.07;;
79798;SDS011;69283;48.024;11.090;2023-05-27T13:01:49;9.47;;;3.97;;
79798;SDS011;69283;48.024;11.090;2023-05-27T13:04:14;6.70;;;3.58;;
79798;SDS011;69283;48.024;11.090;2023-05-27T13:06:40;7.57;;;4.00;;
79798;SDS011;69283;48.024;11.090;2023-05-27T13:09:05;10.48;;;4.07;;
79798;SDS011;69283;48.024;11.090;2023-05-27T13:11:33;6.72;;;3.63;;
79798;SDS011;69283;48.024;11.090;2023-05-27T13:13:58;7.28;;;3.63;;
79798;SDS011;69283;48.024;11.090;2023-05-27T13:16:24;6.50;;;3.60;;
79798;SDS011;69283;48.024;11.090;2023-05-27T13:18:49;11.03;;;3.97;;
79798;SDS011;69283;48.024;11.090;2023-05-27T13:21:14;7.30;;;3.42;;
79798;SDS011;69283;48.024;11.090;2023-05-27T13:23:40;7.77;;;3.67;;
79798;SDS011;69283;48.024;11.090;2023-05-27T13:26:05;8.95;;;4.13;;
79798;SDS011;69283;48.024;11.090;2023-05-27T13:28:31;7.25;;;3.90;;
79798;SDS011;69283;48.024;11.090;2023-05-27T13:30:56;7.43;;;3.20;;
79798;SDS011;69283;48.024;11.090;2023-05-27T13:33:21;8.18;;;3.78;;
79798;SDS011;69283;48.024;11.090;2023-05-27T13:35:47;7.32;;;3.45;;
79798;SDS011;69283;48.024;11.090;2023-05-27T13:38:12;6.88;;;3.17;;
79798;SDS011;69283;48.024;11.090;2023-05-27T13:40:39;10.48;;;3.78;;
79798;SDS011;69283;48.024;11.090;2023-05-27T13:43:05;6.05;;;3.50;;
79798;SDS011;69283;48.024;11.090;2023-05-27T13:45:30;5.47;;;3.17;;
79798;SDS011;69283;48.024;11.090;2023-05-27T13:47:56;13.17;;;3.67;;
79798;SDS011;69283;48.024;11.090;2023-05-27T13:50:21;5.95;;;3.40;;
79798;SDS011;69283;48.024;11.090;2023-05-27T13:52:46;8.50;;;3.30;;
79798;SDS011;69283;48.024;11.090;2023-05-27T13:55:12;5.73;;;3.30;;
79798;SDS011;69283;48.024;11.090;2023-05-27T13:57:37;8.30;;;3.20;;
79798;SDS011;69283;48.024;11.090;2023-05-27T14:00:03;8.18;;;3.08;;
79798;SDS011;69283;48.024;11.090;2023-05-27T14:02:28;6.30;;;3.53;;
79798;SDS011;69283;48.024;11.090;2023-05-27T14:04:54;5.63;;;2.80;;
79798;SDS011;69283;48.024;11.090;2023-05-27T14:07:20;7.55;;;3.13;;
79798;SDS011;69283;48.024;11.090;2023-05-27T14:09:45;6.13;;;3.13;;
79798;SDS011;69283;48.024;11.090;2023-05-27T14:12:11;6.00;;;3.80;;
79798;SDS011;69283;48.024;11.090;2023-05-27T14:14:36;10.57;;;3.13;;
79798;SDS011;69283;48.024;11.090;2023-05-27T14:17:04;9.48;;;3.08;;
79798;SDS011;69283;48.024;11.090;2023-05-27T14:19:31;6.60;;;3.33;;
79798;SDS011;69283;48.024;11.090;2023-05-27T14:21:56;7.95;;;3.38;;
79798;SDS011;69283;48.024;11.090;2023-05-27T14:24:21;6.87;;;3.43;;
79798;SDS011;69283;48.024;11.090;2023-05-27T14:26:47;6.00;;;3.38;;
79798;SDS011;69283;48.024;11.090;2023-05-27T14:29:12;6.65;;;3.17;;
79798;SDS011;69283;48.024;11.090;2023-05-27T14:31:37;6.97;;;3.60;;
79798;SDS011;69283;48.024;11.090;2023-05-27T14:34:02;7.65;;;3.60;;
79798;SDS011;69283;48.024;11.090;2023-05-27T14:36:28;9.85;;;3.72;;
79798;SDS011;69283;48.024;11.090;2023-05-27T14:38:53;9.10;;;3.67;;
79798;SDS011;69283;48.024;11.090;2023-05-27T14:41:18;7.13;;;3.37;;
79798;SDS011;69283;48.024;11.090;2023-05-27T14:43:44;6.72;;;3.10;;
79798;SDS011;69283;48.024;11.090;2023-05-27T14:46:09;10.63;;;3.45;;
79798;SDS011;69283;48.024;11.090;2023-05-27T14:48:35;8.30;;;3.25;;